Time;durP1;ratioP1;P1;durP2;ratioP2;P2;SDS_P1;SDS_P2;PMS_P1;PMS_P2;Temp;Humidity;BMP_temperature;BMP_pressure;BME280_temperature;BME280_humidity;BME280_pressure;Samples;Min_cycle;Max_cycle;Signal;HPM_P1;HPM_P2
2022/08/03 00:01:28;;;;;;;7.78;2.80;;;;;;;17.15;100.00;100071.94;5036198;28;20041;-74
2022/08/03 00:03:55;;;;;;;5.65;2.78;;;;;;;17.20;100.00;100072.44;5035903;28;20053;-74
2022/08/03 00:06:23;;;;;;;5.78;2.80;;;;;;;17.20;100.00;100075.16;5035477;28;20462;-74
2022/08/03 00:08:52;;;;;;;5.95;3.00;;;;;;;17.20;100.00;100076.06;5035601;28;20072;-74
2022/08/03 00:11:19;;;;;;;4.65;2.70;;;;;;;17.12;100.00;100083.97;5035303;28;20078;-74
2022/08/03 00:13:47;;;;;;;5.43;3.08;;;;;;;17.01;100.00;100082.13;5035697;28;20434;-74
2022/08/03 00:16:15;;;;;;;6.97;2.85;;;;;;;17.04;100.00;100087.31;5035529;28;20037;-74
2022/08/03 00:18:42;;;;;;;5.22;2.60;;;;;;;17.06;100.00;100085.34;5035772;28;20045;-74
2022/08/03 00:21:10;;;;;;;9.38;3.47;;;;;;;17.16;100.00;100090.94;5035513;28;20088;-74
2022/08/03 00:23:37;;;;;;;6.35;3.55;;;;;;;17.16;100.00;100096.41;5035148;28;20046;-74
2022/08/03 00:26:06;;;;;;;9.38;3.58;;;;;;;17.20;100.00;100086.09;5035186;28;20050;-74
2022/08/03 00:28:34;;;;;;;9.90;3.40;;;;;;;17.15;100.00;100088.31;5035341;28;20045;-74
2022/08/03 00:31:01;;;;;;;8.18;3.33;;;;;;;17.03;100.00;100087.44;5035393;28;20045;-74
2022/08/03 00:33:29;;;;;;;8.52;3.30;;;;;;;17.02;100.00;100082.97;5035196;28;20441;-74
2022/08/03 00:35:56;;;;;;;6.68;3.38;;;;;;;16.98;100.00;100087.81;5035131;28;20479;-74
2022/08/03 00:38:24;;;;;;;9.27;3.50;;;;;;;16.95;100.00;100088.88;5034776;28;20045;-74
2022/08/03 00:40:51;;;;;;;8.85;3.55;;;;;;;16.91;100.00;100090.13;5035306;28;20045;-74
2022/08/03 00:43:25;;;;;;;9.93;4.60;;;;;;;16.98;100.00;100085.09;5035252;28;20037;-74
2022/08/03 00:45:53;;;;;;;8.90;3.70;;;;;;;16.99;100.00;100081.38;5035469;28;20080;-74
2022/08/03 00:48:21;;;;;;;7.97;3.25;;;;;;;16.94;100.00;100097.22;5026572;28;20057;-74
2022/08/03 00:50:48;;;;;;;11.27;3.45;;;;;;;16.93;100.00;100095.47;5015039;28;20053;-74
2022/08/03 00:53:16;;;;;;;7.93;3.25;;;;;;;16.89;100.00;100094.81;5014788;28;20052;-73
2022/08/03 00:55:44;;;;;;;6.88;3.10;;;;;;;16.90;100.00;100090.22;5015032;28;20046;-74
2022/08/03 00:58:12;;;;;;;8.73;3.10;;;;;;;16.80;100.00;100093.69;5015030;28;20095;-74
2022/08/03 01:00:41;;;;;;;8.57;3.33;;;;;;;16.85;100.00;100097.91;5015156;28;20487;-74
2022/08/03 01:03:10;;;;;;;7.05;3.40;;;;;;;16.85;100.00;100089.72;5014822;28;20049;-74
2022/08/03 01:05:42;;;;;;;6.47;3.13;;;;;;;16.71;100.00;100080.78;5014731;28;20046;-74
2022/08/03 01:08:16;;;;;;;7.43;2.90;;;;;;;16.69;100.00;100079.16;5016037;28;20056;-75
2022/08/03 01:10:53;;;;;;;6.95;3.20;;;;;;;16.72;100.00;100081.63;5032641;28;20502;-74
2022/08/03 01:13:24;;;;;;;8.85;3.58;;;;;;;16.75;100.00;100074.09;5034655;28;20050;-74
2022/08/03 01:15:58;;;;;;;7.32;3.40;;;;;;;16.82;100.00;100077.22;5034749;28;20057;-74
2022/08/03 01:18:30;;;;;;;11.23;3.00;;;;;;;16.65;100.00;100079.41;5034324;28;20045;-74
2022/08/03 01:20:58;;;;;;;7.88;3.00;;;;;;;16.59;100.00;100088.06;5035360;28;20052;-74
2022/08/03 01:23:37;;;;;;;7.75;2.90;;;;;;;16.60;100.00;100081.63;5034189;28;20073;-74
2022/08/03 01:26:28;;;;;;;6.28;2.97;;;;;;;16.64;100.00;100083.09;5034366;28;20390;-74
2022/08/03 01:29:04;;;;;;;5.53;2.92;;;;;;;16.64;100.00;100085.84;5035474;28;20045;-74
2022/08/03 01:31:37;;;;;;;5.35;2.95;;;;;;;16.72;100.00;100087.09;5035635;28;20041;-74
2022/08/03 01:34:07;;;;;;;7.93;3.65;;;;;;;16.54;100.00;100089.41;5035948;28;20050;-74
2022/08/03 01:36:38;;;;;;;7.28;3.50;;;;;;;16.44;100.00;100087.38;5033755;28;20098;-74
2022/08/03 01:39:08;;;;;;;7.32;3.40;;;;;;;16.56;100.00;100092.91;5034797;28;20041;-74
2022/08/03 01:41:40;;;;;;;9.02;3.65;;;;;;;16.42;100.00;100092.09;5035346;28;20099;-74
2022/08/03 01:44:10;;;;;;;8.38;3.60;;;;;;;16.36;100.00;100087.13;5035377;28;20064;-74
2022/08/03 01:46:40;;;;;;;8.18;3.40;;;;;;;16.29;100.00;100099.47;5033812;28;20092;-74
2022/08/03 01:49:08;;;;;;;17.25;5.38;;;;;;;16.24;100.00;100098.97;5033992;28;20112;-73
2022/08/03 01:51:37;;;;;;;6.85;3.45;;;;;;;16.25;100.00;100095.25;5033447;28;20490;-74
2022/08/03 01:54:05;;;;;;;8.05;3.72;;;;;;;16.38;100.00;100087.88;5033701;28;20053;-74
2022/08/03 01:56:33;;;;;;;9.55;3.97;;;;;;;16.25;100.00;100090.66;5033710;28;20103;-74
2022/08/03 01:59:01;;;;;;;9.23;3.92;;;;;;;16.21;100.00;100091.88;5033750;28;20052;-73
2022/08/03 02:01:30;;;;;;;7.38;3.88;;;;;;;16.23;100.00;100092.63;5033625;28;20057;-74
2022/08/03 02:03:59;;;;;;;9.95;4.07;;;;;;;16.29;100.00;100091.31;5033598;28;20402;-74
2022/08/03 02:06:27;;;;;;;9.77;3.88;;;;;;;16.32;100.00;100091.94;5033092;28;20057;-74
2022/08/03 02:08:56;;;;;;;8.38;3.78;;;;;;;16.28;100.00;100095.00;5033292;28;20041;-74
2022/08/03 02:11:23;;;;;;;6.28;3.70;;;;;;;16.26;100.00;100095.13;5033419;28;20057;-74
2022/08/03 02:13:51;;;;;;;9.32;3.80;;;;;;;16.28;100.00;100093.13;5033554;28;20052;-75
2022/08/03 02:16:19;;;;;;;8.20;3.60;;;;;;;16.26;100.00;100097.00;5033405;28;20079;-73
2022/08/03 02:18:47;;;;;;;7.40;3.70;;;;;;;16.26;100.00;100088.81;5033640;28;20120;-73
2022/08/03 02:21:16;;;;;;;8.43;3.83;;;;;;;16.26;100.00;100100.56;5033054;28;20045;-74
2022/08/03 02:23:44;;;;;;;8.38;3.85;;;;;;;16.29;100.00;100097.59;5033355;28;20049;-74
2022/08/03 02:26:15;;;;;;;6.90;3.58;;;;;;;16.30;100.00;100095.75;5033491;28;20049;-74
2022/08/03 02:28:46;;;;;;;7.50;3.92;;;;;;;16.38;100.00;100096.03;5035331;28;20128;-74
2022/08/03 02:31:17;;;;;;;6.97;3.83;;;;;;;16.47;100.00;100091.75;5033389;28;20057;-74
2022/08/03 02:33:49;;;;;;;8.32;4.25;;;;;;;16.49;100.00;100082.44;5034038;28;20415;-75
2022/08/03 02:36:20;;;;;;;11.90;4.18;;;;;;;16.52;100.00;100084.06;5033928;28;20046;-74
2022/08/03 02:38:52;;;;;;;8.95;3.75;;;;;;;16.45;100.00;100083.66;5033342;28;20042;-74
2022/08/03 02:41:23;;;;;;;8.77;4.10;;;;;;;16.46;100.00;100079.97;5033086;28;20045;-75
2022/08/03 02:43:54;;;;;;;10.68;4.00;;;;;;;16.48;100.00;100086.16;5033373;28;20042;-75
2022/08/03 02:46:26;;;;;;;8.00;4.30;;;;;;;16.46;100.00;100088.13;5034337;28;20050;-73
2022/08/03 02:48:54;;;;;;;7.35;4.00;;;;;;;16.37;100.00;100080.69;5020893;28;20058;-75
2022/08/03 02:51:24;;;;;;;11.80;4.03;;;;;;;16.25;100.00;100087.94;5013446;28;20053;-75
2022/08/03 02:53:53;;;;;;;7.07;3.70;;;;;;;16.12;100.00;100093.47;5012926;28;20037;-74
2022/08/03 02:56:21;;;;;;;6.80;3.47;;;;;;;16.13;100.00;100091.59;5012247;28;20422;-74
2022/08/03 02:58:49;;;;;;;7.13;3.80;;;;;;;16.12;100.00;100093.47;5012533;28;20050;-74
2022/08/03 03:01:19;;;;;;;7.57;3.60;;;;;;;16.08;100.00;100097.38;5013225;28;20056;-75
2022/08/03 03:03:47;;;;;;;6.82;3.40;;;;;;;16.08;100.00;100098.28;5012721;28;20129;-74
2022/08/03 03:06:17;;;;;;;11.23;3.65;;;;;;;16.07;100.00;100098.38;5013289;28;20045;-74
2022/08/03 03:08:47;;;;;;;8.48;3.97;;;;;;;16.11;100.00;100102.59;5014674;28;20096;-75
2022/08/03 03:11:15;;;;;;;10.13;3.78;;;;;;;16.06;100.00;100105.69;5013135;28;20060;-74
2022/08/03 03:13:43;;;;;;;9.20;3.70;;;;;;;15.91;100.00;100110.44;5013157;28;20046;-74
2022/08/03 03:16:13;;;;;;;9.10;3.90;;;;;;;15.82;100.00;100110.19;5013108;28;20046;-74
2022/08/03 03:18:40;;;;;;;8.75;3.85;;;;;;;15.83;100.00;100111.94;5012663;28;20574;-75
2022/08/03 03:21:08;;;;;;;8.55;3.83;;;;;;;15.75;100.00;100110.66;5013042;28;20401;-75
2022/08/03 03:23:38;;;;;;;8.30;3.90;;;;;;;15.63;100.00;100111.56;5013079;28;20100;-74
2022/08/03 03:26:07;;;;;;;7.47;3.88;;;;;;;15.67;100.00;100112.19;5012836;28;20037;-74
2022/08/03 03:28:36;;;;;;;9.93;4.30;;;;;;;15.78;100.00;100109.56;5012884;28;20049;-75
2022/08/03 03:31:05;;;;;;;10.32;5.60;;;;;;;15.89;100.00;100106.94;5012958;28;20050;-74
2022/08/03 03:33:33;;;;;;;9.63;4.68;;;;;;;15.81;100.00;100106.63;5012606;28;20129;-74
2022/08/03 03:36:01;;;;;;;9.18;4.10;;;;;;;15.89;100.00;100106.94;5012858;28;20057;-74
2022/08/03 03:38:29;;;;;;;10.82;4.32;;;;;;;15.83;100.00;100107.38;5012866;28;20517;-75
2022/08/03 03:40:57;;;;;;;9.25;4.68;;;;;;;15.87;100.00;100102.56;5014549;28;20049;-75
2022/08/03 03:43:26;;;;;;;8.32;4.35;;;;;;;15.89;100.00;100104.22;5016424;28;20073;-74
2022/08/03 03:45:55;;;;;;;9.43;4.55;;;;;;;15.93;100.00;100111.19;5016141;28;20079;-74
2022/08/03 03:48:22;;;;;;;8.50;4.57;;;;;;;16.03;100.00;100119.53;5024278;28;20491;-75
2022/08/03 03:50:50;;;;;;;8.73;4.60;;;;;;;16.22;100.00;100108.13;5035882;28;20072;-74
2022/08/03 03:53:18;;;;;;;9.43;4.60;;;;;;;16.28;100.00;100116.81;5036156;28;20053;-74
2022/08/03 03:55:45;;;;;;;9.48;4.63;;;;;;;16.27;100.00;100118.66;5035978;28;20045;-74
2022/08/03 03:58:12;;;;;;;11.10;4.85;;;;;;;16.30;100.00;100114.84;5036011;28;20445;-74
2022/08/03 04:00:43;;;;;;;10.77;5.20;;;;;;;16.33;100.00;100125.50;5035723;28;20497;-75
2022/08/03 04:03:11;;;;;;;9.48;5.10;;;;;;;16.36;100.00;100130.72;5036185;28;20055;-75
2022/08/03 04:11:13;;;;;;;11.07;4.95;;;;;;;16.38;100.00;100142.38;5034774;28;20052;-74
2022/08/03 04:13:43;;;;;;;12.55;6.80;;;;;;;16.41;100.00;100133.97;5036634;28;20411;-74
2022/08/03 04:16:15;;;;;;;13.07;6.55;;;;;;;16.46;100.00;100141.81;5035538;28;20041;-73
2022/08/03 04:18:46;;;;;;;9.07;5.10;;;;;;;16.53;100.00;100143.06;5035685;28;20053;-74
2022/08/03 04:21:14;;;;;;;10.63;5.13;;;;;;;16.53;100.00;100142.22;5036099;28;20450;-74
2022/08/03 04:23:45;;;;;;;21.00;5.35;;;;;;;16.46;100.00;100144.53;5035441;28;20041;-74
2022/08/03 04:26:14;;;;;;;20.60;5.85;;;;;;;16.43;100.00;100142.88;5036833;28;20045;-75
2022/08/03 04:28:43;;;;;;;14.27;4.85;;;;;;;16.35;100.00;100153.50;5035337;28;20038;-74
2022/08/03 04:31:12;;;;;;;12.73;5.40;;;;;;;16.42;100.00;100151.19;5034690;28;20076;-73
2022/08/03 04:33:40;;;;;;;8.90;4.88;;;;;;;16.42;100.00;100149.31;5035133;28;20494;-75
2022/08/03 04:36:09;;;;;;;11.18;5.53;;;;;;;16.47;100.00;100149.84;5035313;28;20045;-73
2022/08/03 04:38:39;;;;;;;9.90;4.88;;;;;;;16.55;100.00;100145.69;5035009;28;20491;-73
2022/08/03 04:41:07;;;;;;;11.65;5.47;;;;;;;16.66;100.00;100149.31;5035579;28;20045;-73
2022/08/03 04:43:35;;;;;;;17.45;9.27;;;;;;;16.76;100.00;100144.00;5035038;28;20487;-74
2022/08/03 04:46:03;;;;;;;15.48;9.05;;;;;;;16.89;100.00;100154.84;5034778;28;20491;-72
2022/08/03 04:48:32;;;;;;;13.13;6.68;;;;;;;16.88;100.00;100154.94;5034701;28;20542;-73
2022/08/03 04:51:03;;;;;;;12.68;5.32;;;;;;;17.02;100.00;100160.25;5034806;28;20052;-73
2022/08/03 04:53:30;;;;;;;14.27;5.60;;;;;;;17.16;100.00;100156.44;5035552;28;20511;-73
2022/08/03 04:56:04;;;;;;;14.45;5.30;;;;;;;17.22;100.00;100147.75;5034793;28;20406;-74
2022/08/03 04:58:32;;;;;;;10.57;5.15;;;;;;;17.50;100.00;100158.31;5035046;28;20092;-73
2022/08/03 05:00:59;;;;;;;7.97;4.00;;;;;;;17.55;100.00;100155.22;5034395;28;20056;-73
2022/08/03 05:03:27;;;;;;;11.10;4.20;;;;;;;17.67;100.00;100157.81;5034897;28;20053;-73
2022/08/03 05:05:56;;;;;;;8.18;4.00;;;;;;;17.81;100.00;100155.84;5034554;28;20045;-73
2022/08/03 05:08:23;;;;;;;8.45;3.90;;;;;;;17.97;100.00;100158.16;5034632;28;20049;-73
2022/08/03 05:10:51;;;;;;;7.22;3.90;;;;;;;18.09;100.00;100159.91;5017933;28;20491;-73
2022/08/03 05:13:18;;;;;;;8.57;3.83;;;;;;;18.19;100.00;100161.88;5014689;28;20050;-73
2022/08/03 05:15:46;;;;;;;8.65;3.70;;;;;;;18.35;100.00;100161.44;5014369;28;20053;-73
2022/08/03 05:18:13;;;;;;;8.68;3.60;;;;;;;18.44;100.00;100163.41;5014588;28;20526;-74
2022/08/03 05:20:41;;;;;;;8.80;3.55;;;;;;;18.55;100.00;100162.50;5014545;28;20050;-72
2022/08/03 05:23:10;;;;;;;7.32;3.75;;;;;;;18.65;100.00;100159.84;5014334;28;20484;-74
2022/08/03 05:25:37;;;;;;;6.35;3.53;;;;;;;18.76;100.00;100164.38;5014487;28;20041;-78
2022/08/03 05:28:05;;;;;;;8.52;3.80;;;;;;;18.80;100.00;100168.63;5014077;28;20042;-73
2022/08/03 05:30:33;;;;;;;8.95;4.00;;;;;;;18.93;100.00;100168.41;5014650;28;20559;-74
2022/08/03 05:33:00;;;;;;;7.03;3.53;;;;;;;19.04;100.00;100170.25;5015446;28;20058;-75
2022/08/03 05:35:28;;;;;;;6.43;3.40;;;;;;;19.11;100.00;100171.44;5034081;28;20046;-76
2022/08/03 05:37:55;;;;;;;5.70;3.28;;;;;;;19.21;99.24;100177.00;5034142;28;20045;-75
2022/08/03 05:40:24;;;;;;;7.57;3.17;;;;;;;19.39;99.26;100171.78;5033362;28;20037;-75
2022/08/03 05:42:52;;;;;;;7.80;3.35;;;;;;;19.50;98.54;100176.31;5033695;28;20406;-75
2022/08/03 05:45:19;;;;;;;6.10;2.78;;;;;;;19.46;97.62;100181.16;5034095;28;20123;-75
2022/08/03 05:47:49;;;;;;;7.65;3.17;;;;;;;19.55;98.01;100179.50;5030011;28;20049;-75
2022/08/03 05:50:17;;;;;;;5.97;2.88;;;;;;;19.61;97.08;100176.19;5014008;28;20054;-75
2022/08/03 05:52:45;;;;;;;5.40;2.90;;;;;;;19.61;95.69;100173.47;5014026;28;20500;-75
2022/08/03 05:55:13;;;;;;;5.20;2.80;;;;;;;19.69;93.87;100181.00;5014110;28;20502;-75
2022/08/03 05:57:43;;;;;;;4.35;2.42;;;;;;;19.74;93.35;100184.19;5013526;28;20042;-74
2022/08/03 06:00:12;;;;;;;4.88;2.42;;;;;;;19.77;92.06;100183.03;5013913;28;20491;-74
2022/08/03 06:02:39;;;;;;;5.45;2.50;;;;;;;19.82;91.53;100191.72;5013883;28;20074;-75
2022/08/03 06:05:08;;;;;;;6.45;2.40;;;;;;;19.92;91.10;100191.78;5013594;28;20046;-75
2022/08/03 06:07:36;;;;;;;4.57;2.40;;;;;;;19.91;90.25;100188.19;5013958;28;20046;-75
2022/08/03 06:10:04;;;;;;;3.92;2.38;;;;;;;20.07;89.99;100192.28;5025879;28;20515;-73
2022/08/03 06:12:34;;;;;;;4.43;2.40;;;;;;;20.08;89.95;100188.53;5033187;28;20046;-73
2022/08/03 06:15:04;;;;;;;5.25;2.65;;;;;;;20.20;88.85;100195.63;5034370;28;20045;-72
2022/08/03 06:17:31;;;;;;;7.72;2.50;;;;;;;20.27;88.21;100184.97;5033408;28;20052;-73
2022/08/03 06:19:58;;;;;;;4.72;2.50;;;;;;;20.21;87.03;100183.66;5033394;28;20045;-73
2022/08/03 06:22:26;;;;;;;4.45;2.33;;;;;;;20.25;87.26;100182.38;5033470;28;20053;-72
2022/08/03 06:24:53;;;;;;;4.28;2.20;;;;;;;20.33;86.62;100180.78;5033296;28;20041;-73
2022/08/03 06:27:21;;;;;;;4.07;2.38;;;;;;;20.36;86.11;100186.00;5032987;28;20103;-73
2022/08/03 06:29:48;;;;;;;3.55;2.20;;;;;;;20.50;84.56;100188.31;5033165;28;20054;-73
2022/08/03 06:32:21;;;;;;;6.57;2.20;;;;;;;20.51;84.87;100178.22;5033355;28;20046;-72
2022/08/03 06:34:48;;;;;;;4.65;2.40;;;;;;;20.69;84.40;100183.88;5033152;28;20041;-73
2022/08/03 06:37:17;;;;;;;6.65;2.53;;;;;;;20.75;84.06;100188.78;5032983;28;20049;-73
2022/08/03 06:39:44;;;;;;;4.55;2.20;;;;;;;20.74;84.50;100186.16;5033054;28;20053;-73
2022/08/03 06:42:12;;;;;;;4.15;2.20;;;;;;;20.71;82.87;100181.84;5032934;28;20108;-72
2022/08/03 06:44:39;;;;;;;4.32;2.00;;;;;;;20.75;82.28;100183.28;5033141;28;20046;-73
2022/08/03 06:47:07;;;;;;;3.00;2.20;;;;;;;20.82;81.70;100186.34;5032987;28;20447;-73
2022/08/03 06:49:36;;;;;;;5.03;2.30;;;;;;;20.87;81.83;100186.78;5032667;28;20057;-73
2022/08/03 06:52:04;;;;;;;3.92;2.20;;;;;;;20.89;81.11;100187.50;5033098;28;20045;-73
2022/08/03 06:54:31;;;;;;;5.38;2.30;;;;;;;20.95;81.30;100189.66;5033049;28;20446;-73
2022/08/03 06:56:59;;;;;;;3.13;2.00;;;;;;;21.01;81.56;100187.34;5032839;28;20119;-73
2022/08/03 06:59:27;;;;;;;4.43;2.20;;;;;;;21.07;81.24;100195.88;5033061;28;20099;-72
2022/08/03 07:01:54;;;;;;;4.05;2.33;;;;;;;21.14;80.88;100193.38;5033068;28;20044;-72
2022/08/03 07:04:22;;;;;;;3.38;2.10;;;;;;;21.24;80.23;100193.38;5032896;28;20391;-72
2022/08/03 07:06:51;;;;;;;6.88;2.13;;;;;;;21.28;79.57;100187.44;5033015;28;20446;-73
2022/08/03 07:09:18;;;;;;;3.35;2.17;;;;;;;21.36;79.49;100185.84;5032579;28;20045;-73
2022/08/03 07:11:46;;;;;;;4.53;2.00;;;;;;;21.40;79.42;100193.63;5032752;28;20384;-73
2022/08/03 07:14:13;;;;;;;3.95;2.20;;;;;;;21.42;79.19;100186.13;5032930;28;20052;-73
2022/08/03 07:16:41;;;;;;;3.45;2.00;;;;;;;21.51;78.98;100189.84;5035846;28;20462;-73
2022/08/03 07:19:08;;;;;;;5.10;2.10;;;;;;;21.57;78.59;100185.63;5036624;28;20065;-73
2022/08/03 07:21:36;;;;;;;5.88;2.17;;;;;;;21.54;77.68;100195.03;5036622;28;20565;-73
2022/08/03 07:24:06;;;;;;;4.93;2.20;;;;;;;21.61;77.18;100192.56;5035976;28;20502;-73
2022/08/03 07:26:33;;;;;;;3.42;2.15;;;;;;;21.73;77.06;100193.28;5036343;28;20061;-72
2022/08/03 07:29:01;;;;;;;5.72;2.40;;;;;;;21.77;77.49;100191.06;5036491;28;20046;-72
2022/08/03 07:31:29;;;;;;;4.95;2.30;;;;;;;21.79;76.68;100192.66;5036513;28;20049;-73
2022/08/03 07:33:56;;;;;;;6.38;2.20;;;;;;;21.85;76.64;100194.81;5036320;28;20502;-73
2022/08/03 07:36:25;;;;;;;8.57;2.50;;;;;;;21.91;76.32;100198.84;5036384;28;20049;-72
2022/08/03 07:38:53;;;;;;;5.72;2.15;;;;;;;21.96;75.92;100192.88;5035947;28;20128;-73
2022/08/03 07:41:21;;;;;;;4.55;2.45;;;;;;;22.03;76.45;100198.63;5036288;28;20052;-72
2022/08/03 07:43:49;;;;;;;4.43;2.10;;;;;;;22.09;75.61;100207.16;5036151;28;20056;-73
2022/08/03 07:46:16;;;;;;;4.22;2.30;;;;;;;22.16;75.68;100198.28;5036363;28;20048;-72
2022/08/03 07:48:44;;;;;;;11.18;2.70;;;;;;;22.22;74.98;100197.66;5024400;28;20042;-72
2022/08/03 07:51:12;;;;;;;4.85;2.33;;;;;;;22.21;74.43;100199.53;5016933;28;20053;-73
2022/08/03 07:53:39;;;;;;;4.68;1.92;;;;;;;22.27;74.85;100196.19;5015923;28;20518;-73
2022/08/03 07:56:06;;;;;;;4.22;2.20;;;;;;;22.37;75.21;100200.75;5016270;28;20069;-73
2022/08/03 07:58:37;;;;;;;7.03;2.50;;;;;;;22.43;75.66;100197.38;5016107;28;20046;-73
2022/08/03 08:01:04;;;;;;;3.85;2.30;;;;;;;22.51;75.21;100203.00;5017036;28;20045;-72
2022/08/03 08:03:31;;;;;;;4.10;2.22;;;;;;;22.64;75.05;100204.50;5016141;28;20049;-73
2022/08/03 08:05:59;;;;;;;4.82;2.20;;;;;;;22.67;74.55;100204.22;5016095;28;20411;-73
2022/08/03 08:08:27;;;;;;;6.70;2.50;;;;;;;22.70;74.78;100195.63;5015762;28;20053;-73
2022/08/03 08:10:54;;;;;;;3.78;2.20;;;;;;;22.77;74.98;100202.25;5034977;28;20095;-73
2022/08/03 08:13:22;;;;;;;4.13;2.30;;;;;;;22.92;73.24;100196.16;5035661;28;20053;-73
2022/08/03 08:15:50;;;;;;;3.08;2.10;;;;;;;22.85;73.20;100198.72;5035609;28;20388;-73
2022/08/03 08:18:18;;;;;;;3.33;1.98;;;;;;;22.90;73.79;100200.97;5035728;28;20046;-72
2022/08/03 08:20:46;;;;;;;4.20;2.10;;;;;;;22.94;74.47;100203.25;5035707;28;20119;-73
2022/08/03 08:23:13;;;;;;;4.85;2.30;;;;;;;22.97;74.70;100207.56;5035143;28;20115;-72
2022/08/03 08:25:41;;;;;;;4.70;2.20;;;;;;;23.01;74.09;100203.47;5035591;28;20053;-73
2022/08/03 08:28:09;;;;;;;6.07;2.30;;;;;;;23.00;73.40;100204.50;5035357;28;20045;-73
2022/08/03 08:30:36;;;;;;;5.15;2.40;;;;;;;23.06;74.24;100201.13;5035531;28;20446;-73
2022/08/03 08:33:05;;;;;;;5.10;2.25;;;;;;;23.09;75.15;100198.06;5035268;28;20037;-73
2022/08/03 08:35:32;;;;;;;4.53;2.50;;;;;;;23.17;75.50;100202.75;5035150;28;20049;-73
2022/08/03 08:38:00;;;;;;;4.97;2.25;;;;;;;23.26;75.69;100203.72;5034932;28;20115;-72
2022/08/03 08:40:28;;;;;;;4.20;2.30;;;;;;;23.33;75.66;100201.19;5035039;28;20402;-73
2022/08/03 08:42:56;;;;;;;5.95;2.40;;;;;;;23.40;73.18;100197.59;5035194;28;20107;-73
2022/08/03 08:45:24;;;;;;;7.75;3.00;;;;;;;23.39;73.47;100195.88;5035044;28;20049;-73
2022/08/03 08:47:52;;;;;;;7.53;2.75;;;;;;;23.48;74.03;100195.97;5034996;28;20049;-73
2022/08/03 08:50:22;;;;;;;6.18;2.47;;;;;;;23.50;73.80;100203.00;5034732;28;20103;-73
2022/08/03 08:52:50;;;;;;;4.53;2.50;;;;;;;23.51;73.44;100198.38;5034551;28;20054;-72
2022/08/03 08:55:21;;;;;;;4.18;2.20;;;;;;;23.49;72.68;100204.03;5034872;28;20049;-73
2022/08/03 08:57:50;;;;;;;3.85;2.20;;;;;;;23.55;72.86;100199.78;5035467;28;20045;-72
2022/08/03 09:00:18;;;;;;;5.65;2.10;;;;;;;23.62;72.91;100211.88;5034718;28;20051;-73
2022/08/03 09:02:46;;;;;;;3.33;2.10;;;;;;;23.66;72.29;100210.53;5034930;28;20048;-73
2022/08/03 09:12:40;;;;;;;4.72;2.10;;;;;;;23.72;70.77;100203.50;5037506;28;20440;-74
2022/08/03 09:15:18;;;;;;;4.95;2.30;;;;;;;23.77;70.10;100206.63;5055268;28;20471;-73
2022/08/03 09:17:46;;;;;;;4.45;2.08;;;;;;;23.76;69.65;100201.28;5054515;28;20048;-73
2022/08/03 09:20:14;;;;;;;5.03;2.10;;;;;;;23.74;69.36;100198.69;5054344;28;20060;-73
2022/08/03 09:22:56;;;;;;;4.65;2.08;;;;;;;23.71;68.13;100202.63;5054522;28;20051;-73
2022/08/03 09:25:31;;;;;;;4.63;2.33;;;;;;;23.68;68.03;100200.19;5056050;28;20056;-73
2022/08/03 09:28:09;;;;;;;5.97;2.30;;;;;;;23.63;66.97;100207.22;5054076;28;20498;-73
2022/08/03 09:30:38;;;;;;;4.15;2.40;;;;;;;23.59;67.93;100209.47;5054314;28;20045;-73
2022/08/03 09:33:06;;;;;;;5.03;2.58;;;;;;;23.55;68.20;100202.53;5054066;28;20052;-73
2022/08/03 09:35:41;;;;;;;4.75;2.20;;;;;;;23.53;68.81;100204.59;5054101;28;20482;-73
2022/08/03 09:38:16;;;;;;;3.08;2.00;;;;;;;23.58;69.08;100193.94;5054963;28;20102;-72
2022/08/03 09:40:44;;;;;;;3.58;2.15;;;;;;;23.66;69.02;100194.00;5053862;28;20098;-73
2022/08/03 09:43:13;;;;;;;3.85;2.10;;;;;;;23.75;67.65;100205.94;5053594;28;20094;-73
2022/08/03 09:45:41;;;;;;;4.30;2.10;;;;;;;23.87;66.97;100203.75;5053822;28;20408;-72
2022/08/03 09:48:27;;;;;;;4.15;2.20;;;;;;;23.96;65.56;100194.50;5040702;28;20561;-73
2022/08/03 09:50:55;;;;;;;;;;;;;;;24.04;65.39;100195.59;5014398;28;20069;-73
2022/08/03 09:53:23;;;;;;;6.75;2.80;;;;;;;24.09;64.53;100196.81;5014017;28;19928;-72
2022/08/03 09:55:54;;;;;;;4.93;2.63;;;;;;;24.26;65.55;100197.72;5013725;28;20042;-73
2022/08/03 09:58:23;;;;;;;3.92;2.40;;;;;;;24.29;65.25;100199.28;5015097;28;20053;-73
2022/08/03 10:00:58;;;;;;;4.65;2.40;;;;;;;24.24;64.47;100201.69;5013961;28;20049;-73
2022/08/03 10:03:28;;;;;;;4.50;2.10;;;;;;;24.11;64.24;100199.41;5013980;28;20488;-73
2022/08/03 10:05:56;;;;;;;4.65;2.15;;;;;;;24.14;64.45;100190.78;5013879;28;20073;-73
2022/08/03 10:08:23;;;;;;;2.92;2.10;;;;;;;24.13;63.42;100184.41;5013931;28;20053;-73
2022/08/03 10:10:53;;;;;;;3.55;2.10;;;;;;;24.09;64.22;100185.78;5032094;28;20041;-72
2022/08/03 10:13:23;;;;;;;2.75;2.03;;;;;;;24.05;63.98;100189.88;5033537;28;20073;-74
2022/08/03 10:15:51;;;;;;;3.40;2.20;;;;;;;24.09;64.36;100184.91;5033429;28;20446;-73
2022/08/03 10:18:18;;;;;;;4.30;2.38;;;;;;;24.20;64.25;100184.59;5033491;28;20502;-73
2022/08/03 10:20:50;;;;;;;2.65;2.08;;;;;;;24.32;64.06;100184.31;5033458;28;20049;-74
2022/08/03 10:23:18;;;;;;;6.43;2.20;;;;;;;24.43;64.76;100183.97;5033603;28;20045;-73
2022/08/03 10:25:48;;;;;;;2.50;1.90;;;;;;;24.53;65.47;100183.84;5032953;28;20076;-73
2022/08/03 10:28:17;;;;;;;3.33;2.10;;;;;;;24.72;64.62;100185.44;5033238;28;20054;-73
2022/08/03 10:30:49;;;;;;;6.57;2.10;;;;;;;24.67;62.22;100180.41;5033341;28;20046;-72
2022/08/03 10:33:19;;;;;;;4.85;2.28;;;;;;;24.59;62.16;100181.25;5033707;28;20052;-73
2022/08/03 10:35:48;;;;;;;4.07;2.05;;;;;;;24.56;61.86;100177.97;5033792;28;20049;-73
2022/08/03 10:38:19;;;;;;;3.63;2.30;;;;;;;24.58;61.95;100182.28;5033247;28;20470;-73
2022/08/03 10:40:48;;;;;;;4.90;2.20;;;;;;;24.54;60.89;100183.66;5034275;28;20075;-73
2022/08/03 10:43:19;;;;;;;3.58;2.38;;;;;;;24.47;60.36;100179.84;5033173;28;20410;-73
2022/08/03 10:45:49;;;;;;;4.32;2.33;;;;;;;24.44;60.62;100178.28;5033111;28;20095;-72
2022/08/03 10:48:17;;;;;;;4.00;2.25;;;;;;;24.42;60.59;100182.25;5032859;28;20045;-73
2022/08/03 10:50:45;;;;;;;4.45;2.25;;;;;;;24.36;59.50;100183.78;5034498;28;20513;-73
2022/08/03 10:53:13;;;;;;;4.53;2.42;;;;;;;24.30;59.37;100181.69;5037174;28;20520;-72
2022/08/03 10:58:49;;;;;;;9.25;2.50;;;;;;;24.27;62.88;100174.63;5037955;28;20045;-73
2022/08/03 11:01:20;;;;;;;6.80;2.75;;;;;;;24.18;64.28;100178.38;5037125;28;20045;-73
2022/08/03 11:04:15;;;;;;;5.65;2.60;;;;;;;24.09;66.21;100183.03;5037205;28;20371;-73
2022/08/03 11:06:43;;;;;;;3.75;2.30;;;;;;;24.07;65.96;100176.81;5030349;28;20050;-73
2022/08/03 11:09:19;;;;;;;5.38;2.50;;;;;;;24.05;65.75;100189.03;5036460;28;20049;-73
2022/08/03 11:11:48;;;;;;;5.47;2.40;;;;;;;24.03;65.95;100191.94;5037720;28;20045;-73
2022/08/03 11:14:18;;;;;;;3.65;2.40;;;;;;;24.01;65.87;100189.38;5036703;28;20041;-73
2022/08/03 11:16:48;;;;;;;7.22;2.50;;;;;;;23.97;66.05;100187.06;5036847;28;20063;-73
2022/08/03 11:19:21;;;;;;;4.38;2.45;;;;;;;24.00;66.22;100190.41;5037001;28;20042;-73
2022/08/03 11:21:58;;;;;;;5.72;2.35;;;;;;;23.95;65.70;100186.38;5037235;28;20407;-73
2022/08/03 11:24:59;;;;;;;4.00;2.30;;;;;;;23.93;66.24;100189.31;5036152;28;20046;-73
2022/08/03 11:27:30;;;;;;;5.22;2.30;;;;;;;23.92;66.19;100189.47;5033405;28;20107;-73
2022/08/03 11:30:00;;;;;;;6.97;2.40;;;;;;;23.94;66.12;100182.75;5036777;28;20107;-73
2022/08/03 11:32:55;;;;;;;4.95;2.47;;;;;;;23.86;64.89;100183.59;5036378;28;20445;-73
2022/08/03 11:35:24;;;;;;;5.25;2.60;;;;;;;23.89;65.02;100179.63;5036743;28;20098;-73
2022/08/03 11:38:23;;;;;;;5.45;2.50;;;;;;;23.91;63.97;100183.09;5036069;28;20041;-73
2022/08/03 11:40:51;;;;;;;5.82;2.90;;;;;;;23.98;64.38;100180.50;5038043;28;20045;-73
2022/08/03 11:43:45;;;;;;;5.70;2.60;;;;;;;24.04;64.25;100179.88;5036249;28;20072;-73
2022/08/03 11:46:18;;;;;;;7.53;2.60;;;;;;;24.00;64.39;100182.13;5028942;28;20530;-73
2022/08/03 11:48:48;;;;;;;4.00;2.50;;;;;;;24.20;64.11;100181.84;5024335;28;20050;-73